Time,TemperatureF,DewpointF,PressureIn,WindDirection,WindDirectionDegrees,WindSpeedMPH,WindSpeedGustMPH,Humidity,HourlyPrecipIn,Conditions,Clouds,dailyrainin,SolarRadiationWatts/m^2,SoftwareType,DateUTC
2013-01-09 00:02:00,47.0,33.0,-100.00,South,172,18.0,28.0,57,0.00,,,0.00,1.000000,,2013-01-09 08:02:00,
2013-01-09 00:22:00,47.0,33.0,-100.00,South,172,18.0,28.0,57,0.00,,,0.00,1.000000,,2013-01-09 08:22:00,
2013-01-09 00:32:00,47.0,33.0,-100.00,South,172,18.0,28.0,57,0.00,,,0.00,1.000000,,2013-01-09 08:32:00,
2013-01-09 00:43:00,47.0,33.0,-100.00,South,172,18.0,28.0,57,0.00,,,0.00,1.000000,,2013-01-09 08:43:00,
2013-01-09 00:53:00,47.0,33.0,-100.00,South,172,18.0,28.0,57,0.00,,,0.00,1.000000,,2013-01-09 08:53:00,
2013-01-09 01:22:00,46.0,31.0,-100.00,SSE,164,14.0,28.0,56,0.00,,,0.00,1.000000,,2013-01-09 09:22:00,
2013-01-09 01:32:00,46.0,31.0,-100.00,SSE,164,14.0,28.0,56,0.00,,,0.00,1.000000,,2013-01-09 09:32:00,
2013-01-09 01:42:00,46.0,31.0,-100.00,SSE,164,14.0,28.0,56,0.00,,,0.00,1.000000,,2013-01-09 09:42:00,
2013-01-09 01:53:00,46.0,31.0,-100.00,SSE,164,14.0,28.0,56,0.00,,,0.00,1.000000,,2013-01-09 09:53:00,
2013-01-09 02:01:00,46.0,31.0,-100.00,SSE,164,14.0,28.0,56,0.00,,,0.00,1.000000,,2013-01-09 10:01:00,
2013-01-09 02:02:00,46.0,30.0,-100.00,SSE,153,16.0,26.0,53,0.00,,,0.00,1.000000,,2013-01-09 10:02:00,
2013-01-09 02:32:00,46.0,30.0,-100.00,SSE,153,16.0,26.0,53,0.00,,,0.00,1.000000,,2013-01-09 10:32:00,
2013-01-09 02:42:00,46.0,30.0,-100.00,SSE,153,16.0,26.0,53,0.00,,,0.00,1.000000,,2013-01-09 10:42:00,
2013-01-09 02:52:00,46.0,30.0,-100.00,SSE,153,16.0,26.0,53,0.00,,,0.00,1.000000,,2013-01-09 10:52:00,
2013-01-09 03:02:00,47.0,31.0,-100.00,South,190,18.0,31.0,53,0.00,,,0.00,1.000000,,2013-01-09 11:02:00,
2013-01-09 03:33:00,47.0,31.0,-100.00,South,190,18.0,31.0,53,0.00,,,0.00,1.000000,,2013-01-09 11:33:00,
2013-01-09 03:42:00,47.0,31.0,-100.00,South,190,18.0,31.0,53,0.00,,,0.00,1.000000,,2013-01-09 11:42:00,
2013-01-09 03:53:00,47.0,31.0,-100.00,South,190,18.0,31.0,53,0.00,,,0.00,1.000000,,2013-01-09 11:53:00,
2013-01-09 04:02:00,46.0,30.0,-100.00,South,185,13.0,33.0,54,0.00,,,0.00,1.000000,,2013-01-09 12:02:00,
2013-01-09 04:23:00,46.0,30.0,-100.00,South,185,13.0,33.0,54,0.00,,,0.00,1.000000,,2013-01-09 12:23:00,
2013-01-09 04:33:00,46.0,30.0,-100.00,South,185,13.0,33.0,54,0.00,,,0.00,1.000000,,2013-01-09 12:33:00,
2013-01-09 04:43:00,46.0,30.0,-100.00,South,185,13.0,33.0,54,0.00,,,0.00,1.000000,,2013-01-09 12:43:00,
2013-01-09 04:53:00,46.0,30.0,-100.00,South,185,13.0,33.0,54,0.00,,,0.00,1.000000,,2013-01-09 12:53:00,
2013-01-09 05:02:00,48.0,28.0,-100.00,SW,214,16.0,31.0,45,0.00,,,0.00,1.000000,,2013-01-09 13:02:00,
2013-01-09 05:23:00,48.0,28.0,-100.00,SW,214,16.0,31.0,45,0.00,,,0.00,1.000000,,2013-01-09 13:23:00,
2013-01-09 05:33:00,48.0,28.0,-100.00,SW,214,16.0,31.0,45,0.00,,,0.00,1.000000,,2013-01-09 13:33:00,
2013-01-09 05:43:00,48.0,28.0,-100.00,SW,214,16.0,31.0,45,0.00,,,0.00,1.000000,,2013-01-09 13:43:00,
2013-01-09 05:52:00,48.0,28.0,-100.00,SW,214,16.0,31.0,45,0.00,,,0.00,1.000000,,2013-01-09 13:52:00,
2013-01-09 06:02:00,47.0,28.0,-100.00,SSW,192,19.0,31.0,47,0.00,,,0.00,1.000000,,2013-01-09 14:02:00,
2013-01-09 06:23:00,47.0,28.0,-100.00,SSW,192,19.0,31.0,47,0.00,,,0.00,1.000000,,2013-01-09 14:23:00,
2013-01-09 06:33:00,47.0,28.0,-100.00,SSW,192,19.0,31.0,47,0.00,,,0.00,1.000000,,2013-01-09 14:33:00,
2013-01-09 06:43:00,47.0,28.0,-100.00,SSW,192,19.0,31.0,47,0.00,,,0.00,1.000000,,2013-01-09 14:43:00,
2013-01-09 06:53:00,47.0,28.0,-100.00,SSW,192,19.0,31.0,47,0.00,,,0.00,1.000000,,2013-01-09 14:53:00,
2013-01-09 07:02:00,46.0,30.0,-100.00,SSE,167,21.0,33.0,53,0.00,,,0.00,1.000000,,2013-01-09 15:02:00,
2013-01-09 07:23:00,46.0,30.0,-100.00,SSE,167,21.0,33.0,53,0.00,,,0.00,1.000000,,2013-01-09 15:23:00,
2013-01-09 07:33:00,46.0,30.0,-100.00,SSE,167,21.0,33.0,53,0.00,,,0.00,1.000000,,2013-01-09 15:33:00,
2013-01-09 07:43:00,46.0,30.0,-100.00,SSE,167,21.0,33.0,53,0.00,,,0.00,1.000000,,2013-01-09 15:43:00,
2013-01-09 07:53:00,46.0,30.0,-100.00,SSE,167,21.0,33.0,53,0.00,,,0.00,1.000000,,2013-01-09 15:53:00,
2013-01-09 08:02:00,46.0,31.0,-100.00,South,188,22.0,35.0,55,0.00,,,0.00,2.000000,,2013-01-09 16:02:00,
2013-01-09 08:23:00,46.0,31.0,-100.00,South,188,22.0,35.0,55,0.00,,,0.00,2.000000,,2013-01-09 16:23:00,
2013-01-09 08:33:00,46.0,31.0,-100.00,South,188,22.0,35.0,55,0.00,,,0.00,2.000000,,2013-01-09 16:33:00,
2013-01-09 08:43:00,46.0,31.0,-100.00,South,188,22.0,35.0,55,0.00,,,0.00,2.000000,,2013-01-09 16:43:00,
2013-01-09 08:53:00,46.0,31.0,-100.00,South,188,22.0,35.0,55,0.00,,,0.00,2.000000,,2013-01-09 16:53:00,
2013-01-09 09:02:00,46.0,31.0,-100.00,SSW,196,16.0,38.0,56,0.00,,,0.00,34.000000,,2013-01-09 17:02:00,
2013-01-09 09:23:00,46.0,31.0,-100.00,SSW,196,16.0,38.0,56,0.00,,,0.00,34.000000,,2013-01-09 17:23:00,
2013-01-09 09:33:00,46.0,31.0,-100.00,SSW,196,16.0,38.0,56,0.00,,,0.00,34.000000,,2013-01-09 17:33:00,
2013-01-09 09:43:00,46.0,31.0,-100.00,SSW,196,16.0,38.0,56,0.00,,,0.00,34.000000,,2013-01-09 17:43:00,
2013-01-09 09:53:00,46.0,31.0,-100.00,SSW,196,16.0,38.0,56,0.00,,,0.00,34.000000,,2013-01-09 17:53:00,
2013-01-09 10:02:00,40.0,31.0,-100.00,WSW,251,16.0,27.0,71,0.00,,,0.00,32.000000,,2013-01-09 18:02:00,
2013-01-09 10:24:00,40.0,31.0,-100.00,WSW,251,16.0,27.0,71,0.00,,,0.00,32.000000,,2013-01-09 18:24:00,
2013-01-09 10:33:00,40.0,31.0,-100.00,WSW,251,16.0,27.0,71,0.00,,,0.00,32.000000,,2013-01-09 18:33:00,
2013-01-09 10:43:00,40.0,31.0,-100.00,WSW,251,16.0,27.0,71,0.00,,,0.00,32.000000,,2013-01-09 18:43:00,
2013-01-09 10:53:00,40.0,31.0,-100.00,WSW,251,16.0,27.0,71,0.00,,,0.00,32.000000,,2013-01-09 18:53:00,
2013-01-09 12:02:00,38.0,29.0,-100.00,SW,230,12.0,26.0,69,-99.99,,,0.00,174.000000,,2013-01-09 20:02:00,
2013-01-09 12:33:00,38.0,29.0,-100.00,SW,230,12.0,26.0,69,-99.99,,,0.00,174.000000,,2013-01-09 20:33:00,
2013-01-09 12:43:00,38.0,29.0,-100.00,SW,230,12.0,26.0,69,-99.99,,,0.00,174.000000,,2013-01-09 20:43:00,
2013-01-09 12:53:00,38.0,29.0,-100.00,SW,230,12.0,26.0,69,-99.99,,,0.00,174.000000,,2013-01-09 20:53:00,
2013-01-09 13:02:00,38.0,29.0,-100.00,SW,232,15.0,22.0,69,0.00,,,0.00,206.000000,,2013-01-09 21:02:00,
2013-01-09 13:33:00,38.0,29.0,-100.00,SW,232,15.0,22.0,69,0.00,,,0.00,206.000000,,2013-01-09 21:33:00,
2013-01-09 13:43:00,38.0,29.0,-100.00,SW,232,15.0,22.0,69,0.00,,,0.00,206.000000,,2013-01-09 21:43:00,
2013-01-09 13:53:00,38.0,29.0,-100.00,SW,232,15.0,22.0,69,0.00,,,0.00,206.000000,,2013-01-09 21:53:00,
2013-01-09 14:02:00,38.0,28.0,-100.00,WSW,252,12.0,19.0,67,0.00,,,0.00,161.000000,,2013-01-09 22:02:00,
2013-01-09 14:23:00,38.0,28.0,-100.00,WSW,252,12.0,19.0,67,0.00,,,0.00,161.000000,,2013-01-09 22:23:00,
2013-01-09 14:33:00,38.0,28.0,-100.00,WSW,252,12.0,19.0,67,0.00,,,0.00,161.000000,,2013-01-09 22:33:00,
2013-01-09 14:43:00,38.0,28.0,-100.00,WSW,252,12.0,19.0,67,0.00,,,0.00,161.000000,,2013-01-09 22:43:00,
2013-01-09 14:52:00,38.0,28.0,-100.00,WSW,252,12.0,19.0,67,0.00,,,0.00,161.000000,,2013-01-09 22:52:00,
2013-01-09 15:02:00,37.0,27.0,-100.00,West,271,11.0,22.0,67,0.00,,,0.00,152.000000,,2013-01-09 23:02:00,
2013-01-09 15:33:00,37.0,27.0,-100.00,West,271,11.0,22.0,67,0.00,,,0.00,152.000000,,2013-01-09 23:33:00,
2013-01-09 15:43:00,37.0,27.0,-100.00,West,271,11.0,22.0,67,0.00,,,0.00,152.000000,,2013-01-09 23:43:00,
2013-01-09 15:53:00,37.0,27.0,-100.00,West,271,11.0,22.0,67,0.00,,,0.00,152.000000,,2013-01-09 23:53:00,
2013-01-09 16:02:00,34.0,22.0,-100.00,West,260,12.0,20.0,62,0.00,,,0.00,66.000000,,2013-01-10 00:02:00,
2013-01-09 16:33:00,34.0,22.0,-100.00,West,260,12.0,20.0,62,0.00,,,0.00,66.000000,,2013-01-10 00:33:00,
2013-01-09 16:43:00,34.0,22.0,-100.00,West,260,12.0,20.0,62,0.00,,,0.00,66.000000,,2013-01-10 00:43:00,
2013-01-09 16:53:00,34.0,22.0,-100.00,West,260,12.0,20.0,62,0.00,,,0.00,66.000000,,2013-01-10 00:53:00,
2013-01-09 17:02:00,32.0,23.0,-100.00,WSW,248,8.0,13.0,68,0.00,,,0.00,10.000000,,2013-01-10 01:02:00,
2013-01-09 17:33:00,32.0,23.0,-100.00,WSW,248,8.0,13.0,68,0.00,,,0.00,10.000000,,2013-01-10 01:33:00,
2013-01-09 17:43:00,32.0,23.0,-100.00,WSW,248,8.0,13.0,68,0.00,,,0.00,10.000000,,2013-01-10 01:43:00,
2013-01-09 17:53:00,32.0,23.0,-100.00,WSW,248,8.0,13.0,68,0.00,,,0.00,10.000000,,2013-01-10 01:53:00,
2013-01-09 18:02:00,32.0,22.0,-100.00,WSW,251,6.0,11.0,66,0.00,,,0.00,1.000000,,2013-01-10 02:02:00,
2013-01-09 18:22:00,32.0,22.0,-100.00,WSW,251,6.0,11.0,66,0.00,,,0.00,1.000000,,2013-01-10 02:22:00,
2013-01-09 18:33:00,32.0,22.0,-100.00,WSW,251,6.0,11.0,66,0.00,,,0.00,1.000000,,2013-01-10 02:33:00,
2013-01-09 18:43:00,32.0,22.0,-100.00,WSW,251,6.0,11.0,66,0.00,,,0.00,1.000000,,2013-01-10 02:43:00,
2013-01-09 18:52:00,32.0,22.0,-100.00,WSW,251,6.0,11.0,66,0.00,,,0.00,1.000000,,2013-01-10 02:52:00,
2013-01-09 19:02:00,31.0,22.0,-100.00,West,267,5.0,8.0,68,0.00,,,0.00,1.000000,,2013-01-10 03:02:00,
2013-01-09 19:22:00,31.0,22.0,-100.00,West,267,5.0,8.0,68,0.00,,,0.00,1.000000,,2013-01-10 03:22:00,
2013-01-09 19:33:00,31.0,22.0,-100.00,West,267,5.0,8.0,68,0.00,,,0.00,1.000000,,2013-01-10 03:33:00,
2013-01-09 19:43:00,31.0,22.0,-100.00,West,267,5.0,8.0,68,0.00,,,0.00,1.000000,,2013-01-10 03:43:00,
2013-01-09 19:52:00,31.0,22.0,-100.00,West,267,5.0,8.0,68,0.00,,,0.00,1.000000,,2013-01-10 03:52:00,
2013-01-09 20:02:00,30.0,18.0,-100.00,West,273,7.0,15.0,60,0.00,,,0.00,1.000000,,2013-01-10 04:02:00,
2013-01-09 20:32:00,30.0,18.0,-100.00,West,273,7.0,15.0,60,0.00,,,0.00,1.000000,,2013-01-10 04:32:00,
2013-01-09 20:43:00,30.0,18.0,-100.00,West,273,7.0,15.0,60,0.00,,,0.00,1.000000,,2013-01-10 04:43:00,
2013-01-09 20:52:00,30.0,18.0,-100.00,West,273,7.0,15.0,60,0.00,,,0.00,1.000000,,2013-01-10 04:52:00,
2013-01-09 21:02:00,29.0,19.0,-100.00,WSW,241,5.0,11.0,67,0.00,,,-99.99,1.000000,,2013-01-10 05:02:00,
2013-01-09 21:33:00,29.0,19.0,-100.00,WSW,241,5.0,11.0,67,0.00,,,-99.99,1.000000,,2013-01-10 05:33:00,
2013-01-09 21:43:00,29.0,19.0,-100.00,WSW,241,5.0,11.0,67,0.00,,,-99.99,1.000000,,2013-01-10 05:43:00,
2013-01-09 21:52:00,29.0,19.0,-100.00,WSW,241,5.0,11.0,67,0.00,,,-99.99,1.000000,,2013-01-10 05:52:00,
2013-01-09 22:02:00,28.0,20.0,-100.00,SSW,202,1.0,5.0,71,0.00,,,0.00,1.000000,,2013-01-10 06:02:00,
2013-01-09 22:32:00,28.0,20.0,-100.00,SSW,202,1.0,5.0,71,0.00,,,0.00,1.000000,,2013-01-10 06:32:00,
2013-01-09 22:42:00,28.0,20.0,-100.00,SSW,202,1.0,5.0,71,0.00,,,0.00,1.000000,,2013-01-10 06:42:00,
2013-01-09 22:52:00,28.0,20.0,-100.00,SSW,202,1.0,5.0,71,0.00,,,0.00,1.000000,,2013-01-10 06:52:00,
2013-01-09 23:22:00,28.0,20.0,-100.00,SW,220,5.0,6.0,73,0.00,,,0.00,1.000000,,2013-01-10 07:22:00,
2013-01-09 23:32:00,28.0,20.0,-100.00,SW,220,5.0,6.0,73,0.00,,,0.00,1.000000,,2013-01-10 07:32:00,
2013-01-09 23:42:00,28.0,20.0,-100.00,SW,220,5.0,6.0,73,0.00,,,0.00,1.000000,,2013-01-10 07:42:00,
2013-01-09 23:52:00,28.0,20.0,-100.00,SW,220,5.0,6.0,73,0.00,,,0.00,1.000000,,2013-01-10 07:52:00,